South Bay, Florida
Current Conditions -  °F | °C
As of 1:53 PM on Thursday 23 Oct 2014 (Local Time) from KPBI Reporting Station
Overcast Overcast  
Wind Chill: 79°   Ceiling: 3100
Heat Index: 81°   Visibility: 10mi
Dew Point: 66°   Wind: 15mph
Humidity: 64%   Direction: 40°NE
Pressure: 29.91"   Gusts: 22mph
Location:  26.66°N, 80.72°W
Report Text: KPBI 231753Z 04013G19KT 10SM BKN031 OVC060 26/19 A2991 RMK AO2 SLP129 60000 T02610189 10261 20233 58014
Loading
Personal Weather Stations






























Interactive Weather Map
Tropical Storm Tracking
New forecast layout! Learn more

10-Day Weather Forecast

Advertisements
Track Severe Weather on mobile